sensor_id;sensor_type;location;lat;lon;timestamp;pressure;altitude;pressure_sealevel;temperature;humidity
27202;BME280;14717;46.924;15.474;2023-09-30T00:02:25;98381.53;;;13.05;100.00
27202;BME280;14717;46.924;15.474;2023-09-30T00:04:51;98375.72;;;13.24;100.00
27202;BME280;14717;46.924;15.474;2023-09-30T00:07:17;98380.19;;;13.20;100.00
27202;BME280;14717;46.924;15.474;2023-09-30T00:09:42;98380.50;;;13.19;100.00
27202;BME280;14717;46.924;15.474;2023-09-30T00:12:08;98378.66;;;13.33;100.00
27202;BME280;14717;46.924;15.474;2023-09-30T00:14:34;98377.34;;;13.25;100.00
27202;BME280;14717;46.924;15.474;2023-09-30T00:16:59;98369.09;;;13.20;100.00
27202;BME280;14717;46.924;15.474;2023-09-30T00:19:25;98368.97;;;13.30;100.00
27202;BME280;14717;46.924;15.474;2023-09-30T00:21:51;98369.91;;;13.21;100.00
27202;BME280;14717;46.924;15.474;2023-09-30T00:24:16;98363.94;;;12.91;100.00
27202;BME280;14717;46.924;15.474;2023-09-30T00:26:42;98375.84;;;12.91;100.00
27202;BME280;14717;46.924;15.474;2023-09-30T00:29:07;98370.69;;;12.85;100.00
27202;BME280;14717;46.924;15.474;2023-09-30T00:31:32;98370.66;;;13.08;100.00
27202;BME280;14717;46.924;15.474;2023-09-30T00:33:58;98365.13;;;13.08;100.00
27202;BME280;14717;46.924;15.474;2023-09-30T00:36:23;98352.88;;;13.09;100.00
27202;BME280;14717;46.924;15.474;2023-09-30T00:38:48;98352.38;;;13.25;100.00
27202;BME280;14717;46.924;15.474;2023-09-30T00:41:14;98349.97;;;13.19;100.00
27202;BME280;14717;46.924;15.474;2023-09-30T00:43:39;98358.25;;;13.01;100.00
27202;BME280;14717;46.924;15.474;2023-09-30T00:48:51;98356.00;;;12.79;100.00
27202;BME280;14717;46.924;15.474;2023-09-30T00:51:17;98359.31;;;12.81;100.00
27202;BME280;14717;46.924;15.474;2023-09-30T00:53:43;98361.81;;;12.83;100.00
27202;BME280;14717;46.924;15.474;2023-09-30T00:56:09;98369.19;;;12.64;100.00
27202;BME280;14717;46.924;15.474;2023-09-30T00:58:36;98367.31;;;12.60;100.00
27202;BME280;14717;46.924;15.474;2023-09-30T01:01:03;98365.44;;;12.78;100.00
27202;BME280;14717;46.924;15.474;2023-09-30T01:03:29;98362.59;;;12.88;100.00
27202;BME280;14717;46.924;15.474;2023-09-30T01:05:54;98367.66;;;12.76;100.00
27202;BME280;14717;46.924;15.474;2023-09-30T01:08:20;98365.59;;;12.92;100.00
27202;BME280;14717;46.924;15.474;2023-09-30T01:10:46;98373.69;;;12.88;100.00
27202;BME280;14717;46.924;15.474;2023-09-30T01:13:12;98367.28;;;12.88;100.00
27202;BME280;14717;46.924;15.474;2023-09-30T01:15:37;98360.72;;;12.79;100.00
27202;BME280;14717;46.924;15.474;2023-09-30T01:18:03;98360.03;;;12.92;100.00
27202;BME280;14717;46.924;15.474;2023-09-30T01:20:29;98358.16;;;12.87;100.00
27202;BME280;14717;46.924;15.474;2023-09-30T01:22:57;98349.97;;;12.73;100.00
27202;BME280;14717;46.924;15.474;2023-09-30T01:25:23;98350.56;;;12.70;100.00
27202;BME280;14717;46.924;15.474;2023-09-30T01:27:49;98349.09;;;12.77;100.00
27202;BME280;14717;46.924;15.474;2023-09-30T01:30:16;98345.25;;;12.73;100.00
27202;BME280;14717;46.924;15.474;2023-09-30T01:32:43;98349.53;;;12.89;100.00
27202;BME280;14717;46.924;15.474;2023-09-30T01:35:09;98343.38;;;12.69;100.00
27202;BME280;14717;46.924;15.474;2023-09-30T01:37:35;98340.91;;;12.67;100.00
27202;BME280;14717;46.924;15.474;2023-09-30T01:40:00;98346.31;;;12.54;100.00
27202;BME280;14717;46.924;15.474;2023-09-30T01:42:25;98353.16;;;12.61;100.00
27202;BME280;14717;46.924;15.474;2023-09-30T01:44:51;98355.97;;;12.56;100.00
27202;BME280;14717;46.924;15.474;2023-09-30T01:47:17;98337.09;;;12.58;100.00
27202;BME280;14717;46.924;15.474;2023-09-30T01:49:42;98338.00;;;12.77;100.00
27202;BME280;14717;46.924;15.474;2023-09-30T01:52:07;98343.03;;;12.75;100.00
27202;BME280;14717;46.924;15.474;2023-09-30T01:54:33;98341.00;;;12.57;100.00
27202;BME280;14717;46.924;15.474;2023-09-30T01:56:58;98354.78;;;12.39;100.00
27202;BME280;14717;46.924;15.474;2023-09-30T01:59:24;98351.97;;;12.44;100.00
27202;BME280;14717;46.924;15.474;2023-09-30T02:01:49;98342.88;;;12.62;100.00
27202;BME280;14717;46.924;15.474;2023-09-30T02:04:15;98354.81;;;12.62;100.00
27202;BME280;14717;46.924;15.474;2023-09-30T02:06:43;98342.34;;;12.60;100.00
27202;BME280;14717;46.924;15.474;2023-09-30T02:09:09;98338.78;;;12.59;100.00
27202;BME280;14717;46.924;15.474;2023-09-30T02:11:37;98344.78;;;12.66;100.00
27202;BME280;14717;46.924;15.474;2023-09-30T02:14:03;98335.25;;;12.77;100.00
27202;BME280;14717;46.924;15.474;2023-09-30T02:16:31;98333.81;;;12.79;100.00
27202;BME280;14717;46.924;15.474;2023-09-30T02:18:56;98329.03;;;12.62;100.00
27202;BME280;14717;46.924;15.474;2023-09-30T02:21:22;98320.34;;;12.68;100.00
27202;BME280;14717;46.924;15.474;2023-09-30T02:23:47;98326.97;;;12.72;100.00
27202;BME280;14717;46.924;15.474;2023-09-30T02:26:14;98334.16;;;12.73;100.00
27202;BME280;14717;46.924;15.474;2023-09-30T02:28:40;98341.13;;;12.71;100.00
27202;BME280;14717;46.924;15.474;2023-09-30T02:31:05;98347.13;;;12.54;100.00
27202;BME280;14717;46.924;15.474;2023-09-30T02:33:35;98361.38;;;12.43;100.00
27202;BME280;14717;46.924;15.474;2023-09-30T02:36:01;98360.88;;;12.64;100.00
27202;BME280;14717;46.924;15.474;2023-09-30T02:38:27;98375.44;;;12.51;100.00
27202;BME280;14717;46.924;15.474;2023-09-30T02:40:54;98367.44;;;12.73;100.00
27202;BME280;14717;46.924;15.474;2023-09-30T02:43:19;98371.78;;;12.56;100.00
27202;BME280;14717;46.924;15.474;2023-09-30T02:45:45;98357.25;;;12.69;100.00
27202;BME280;14717;46.924;15.474;2023-09-30T02:48:11;98365.78;;;12.72;100.00
27202;BME280;14717;46.924;15.474;2023-09-30T02:50:36;98350.22;;;12.76;100.00
27202;BME280;14717;46.924;15.474;2023-09-30T02:53:02;98354.03;;;12.85;100.00
27202;BME280;14717;46.924;15.474;2023-09-30T02:55:27;98345.66;;;12.90;100.00
27202;BME280;14717;46.924;15.474;2023-09-30T02:57:53;98355.03;;;12.94;100.00
27202;BME280;14717;46.924;15.474;2023-09-30T03:00:18;98350.59;;;12.93;100.00
27202;BME280;14717;46.924;15.474;2023-09-30T03:02:51;98356.69;;;12.95;100.00
27202;BME280;14717;46.924;15.474;2023-09-30T03:05:18;98361.31;;;12.76;100.00
27202;BME280;14717;46.924;15.474;2023-09-30T03:07:44;98354.56;;;12.87;100.00
27202;BME280;14717;46.924;15.474;2023-09-30T03:10:09;98366.25;;;12.79;100.00
27202;BME280;14717;46.924;15.474;2023-09-30T03:12:35;98363.03;;;12.72;100.00
27202;BME280;14717;46.924;15.474;2023-09-30T03:15:01;98363.44;;;12.61;100.00
27202;BME280;14717;46.924;15.474;2023-09-30T03:17:32;98351.28;;;12.80;100.00
27202;BME280;14717;46.924;15.474;2023-09-30T03:19:58;98355.28;;;12.69;100.00
27202;BME280;14717;46.924;15.474;2023-09-30T03:22:25;98351.13;;;12.67;100.00
27202;BME280;14717;46.924;15.474;2023-09-30T03:24:52;98352.38;;;12.84;100.00
27202;BME280;14717;46.924;15.474;2023-09-30T03:27:19;98354.91;;;13.04;100.00
27202;BME280;14717;46.924;15.474;2023-09-30T03:29:45;98342.75;;;13.00;100.00
27202;BME280;14717;46.924;15.474;2023-09-30T03:32:11;98345.66;;;12.90;100.00
27202;BME280;14717;46.924;15.474;2023-09-30T03:34:36;98339.19;;;12.94;100.00
27202;BME280;14717;46.924;15.474;2023-09-30T03:37:02;98340.56;;;12.97;100.00
27202;BME280;14717;46.924;15.474;2023-09-30T03:39:27;98346.50;;;13.09;100.00
27202;BME280;14717;46.924;15.474;2023-09-30T03:41:56;98349.88;;;13.06;100.00
27202;BME280;14717;46.924;15.474;2023-09-30T03:44:23;98342.31;;;13.11;100.00
27202;BME280;14717;46.924;15.474;2023-09-30T03:46:50;98332.56;;;13.14;100.00
27202;BME280;14717;46.924;15.474;2023-09-30T03:49:15;98343.28;;;13.02;100.00
27202;BME280;14717;46.924;15.474;2023-09-30T03:51:41;98346.00;;;13.07;100.00
27202;BME280;14717;46.924;15.474;2023-09-30T03:54:07;98351.34;;;13.21;100.00
27202;BME280;14717;46.924;15.474;2023-09-30T03:56:34;98345.81;;;13.40;100.00
27202;BME280;14717;46.924;15.474;2023-09-30T03:58:59;98344.31;;;13.47;100.00
27202;BME280;14717;46.924;15.474;2023-09-30T04:01:25;98347.16;;;13.42;100.00
27202;BME280;14717;46.924;15.474;2023-09-30T04:03:52;98352.53;;;13.34;100.00
27202;BME280;14717;46.924;15.474;2023-09-30T04:06:20;98360.66;;;13.30;100.00
27202;BME280;14717;46.924;15.474;2023-09-30T04:08:46;98351.56;;;13.25;100.00
27202;BME280;14717;46.924;15.474;2023-09-30T04:11:12;98361.16;;;13.32;100.00
27202;BME280;14717;46.924;15.474;2023-09-30T04:13:42;98360.78;;;13.20;100.00
27202;BME280;14717;46.924;15.474;2023-09-30T04:16:08;98364.00;;;13.27;100.00
27202;BME280;14717;46.924;15.474;2023-09-30T04:18:34;98371.38;;;13.37;100.00
27202;BME280;14717;46.924;15.474;2023-09-30T04:20:59;98380.50;;;13.19;100.00
27202;BME280;14717;46.924;15.474;2023-09-30T04:23:25;98361.97;;;13.15;100.00
27202;BME280;14717;46.924;15.474;2023-09-30T04:25:50;98373.25;;;13.23;100.00
27202;BME280;14717;46.924;15.474;2023-09-30T04:28:16;98354.88;;;13.27;100.00
27202;BME280;14717;46.924;15.474;2023-09-30T04:30:47;98355.09;;;13.30;100.00
27202;BME280;14717;46.924;15.474;2023-09-30T04:33:13;98352.19;;;13.40;100.00
27202;BME280;14717;46.924;15.474;2023-09-30T04:35:39;98357.50;;;13.55;100.00
27202;BME280;14717;46.924;15.474;2023-09-30T04:38:04;98366.06;;;13.59;100.00
27202;BME280;14717;46.924;15.474;2023-09-30T04:40:30;98363.97;;;13.51;100.00
27202;BME280;14717;46.924;15.474;2023-09-30T04:42:56;98375.97;;;13.46;100.00
27202;BME280;14717;46.924;15.474;2023-09-30T04:45:24;98380.38;;;13.47;100.00
27202;BME280;14717;46.924;15.474;2023-09-30T04:47:54;98380.00;;;13.35;100.00
27202;BME280;14717;46.924;15.474;2023-09-30T04:50:21;98391.16;;;13.30;100.00
27202;BME280;14717;46.924;15.474;2023-09-30T04:52:53;98395.31;;;13.33;100.00
27202;BME280;14717;46.924;15.474;2023-09-30T04:55:19;98399.75;;;13.52;100.00
27202;BME280;14717;46.924;15.474;2023-09-30T04:57:48;98400.69;;;13.66;100.00
27202;BME280;14717;46.924;15.474;2023-09-30T05:00:19;98404.72;;;13.55;100.00
27202;BME280;14717;46.924;15.474;2023-09-30T05:02:47;98394.34;;;13.42;100.00
27202;BME280;14717;46.924;15.474;2023-09-30T05:05:13;98400.88;;;13.51;100.00
27202;BME280;14717;46.924;15.474;2023-09-30T05:07:40;98401.34;;;13.58;100.00
27202;BME280;14717;46.924;15.474;2023-09-30T05:10:07;98397.00;;;13.70;100.00
27202;BME280;14717;46.924;15.474;2023-09-30T05:12:38;98400.59;;;13.71;100.00
27202;BME280;14717;46.924;15.474;2023-09-30T05:15:05;98412.91;;;13.65;100.00
27202;BME280;14717;46.924;15.474;2023-09-30T05:17:33;98407.03;;;13.48;100.00
27202;BME280;14717;46.924;15.474;2023-09-30T05:19:59;98412.97;;;13.60;100.00
27202;BME280;14717;46.924;15.474;2023-09-30T05:22:24;98407.63;;;13.63;100.00
27202;BME280;14717;46.924;15.474;2023-09-30T05:24:51;98418.91;;;13.72;100.00
27202;BME280;14717;46.924;15.474;2023-09-30T05:27:17;98423.72;;;13.85;100.00
27202;BME280;14717;46.924;15.474;2023-09-30T05:29:43;98423.41;;;13.86;100.00
27202;BME280;14717;46.924;15.474;2023-09-30T05:32:08;98413.13;;;13.87;100.00
27202;BME280;14717;46.924;15.474;2023-09-30T05:34:34;98424.13;;;13.97;100.00
27202;BME280;14717;46.924;15.474;2023-09-30T05:36:59;98443.63;;;13.92;100.00
27202;BME280;14717;46.924;15.474;2023-09-30T05:39:25;98440.16;;;13.81;100.00
27202;BME280;14717;46.924;15.474;2023-09-30T05:41:51;98440.88;;;13.92;100.00
27202;BME280;14717;46.924;15.474;2023-09-30T05:44:16;98431.78;;;14.04;100.00
27202;BME280;14717;46.924;15.474;2023-09-30T05:46:42;98437.19;;;14.14;100.00
27202;BME280;14717;46.924;15.474;2023-09-30T05:49:09;98437.03;;;14.24;100.00
27202;BME280;14717;46.924;15.474;2023-09-30T05:51:39;98441.53;;;14.20;100.00
27202;BME280;14717;46.924;15.474;2023-09-30T05:54:06;98436.44;;;14.27;100.00
27202;BME280;14717;46.924;15.474;2023-09-30T05:56:32;98444.69;;;14.32;100.00
27202;BME280;14717;46.924;15.474;2023-09-30T05:58:58;98452.34;;;14.40;100.00
27202;BME280;14717;46.924;15.474;2023-09-30T06:01:23;98449.78;;;14.44;100.00
27202;BME280;14717;46.924;15.474;2023-09-30T06:03:49;98463.38;;;14.45;100.00
27202;BME280;14717;46.924;15.474;2023-09-30T06:06:14;98464.50;;;14.44;100.00
27202;BME280;14717;46.924;15.474;2023-09-30T06:08:42;98460.97;;;14.39;100.00
27202;BME280;14717;46.924;15.474;2023-09-30T06:11:20;98467.19;;;14.49;100.00
27202;BME280;14717;46.924;15.474;2023-09-30T06:13:52;98470.13;;;14.57;100.00
27202;BME280;14717;46.924;15.474;2023-09-30T06:16:20;98474.03;;;14.56;100.00
27202;BME280;14717;46.924;15.474;2023-09-30T06:18:46;98476.44;;;14.63;100.00
27202;BME280;14717;46.924;15.474;2023-09-30T06:21:13;98473.78;;;14.71;100.00
27202;BME280;14717;46.924;15.474;2023-09-30T06:23:40;98476.06;;;14.69;100.00
27202;BME280;14717;46.924;15.474;2023-09-30T06:26:05;98473.09;;;14.79;100.00
27202;BME280;14717;46.924;15.474;2023-09-30T06:28:31;98475.97;;;14.74;100.00
27202;BME280;14717;46.924;15.474;2023-09-30T06:30:58;98486.03;;;14.70;100.00
27202;BME280;14717;46.924;15.474;2023-09-30T06:33:23;98491.72;;;14.79;100.00
27202;BME280;14717;46.924;15.474;2023-09-30T06:35:49;98495.56;;;14.83;100.00
27202;BME280;14717;46.924;15.474;2023-09-30T06:38:21;98494.41;;;14.84;100.00
27202;BME280;14717;46.924;15.474;2023-09-30T06:40:47;98497.81;;;14.81;100.00
27202;BME280;14717;46.924;15.474;2023-09-30T06:43:16;98503.00;;;14.87;100.00
27202;BME280;14717;46.924;15.474;2023-09-30T06:45:44;98504.25;;;14.94;100.00
27202;BME280;14717;46.924;15.474;2023-09-30T06:48:12;98505.28;;;14.98;100.00
27202;BME280;14717;46.924;15.474;2023-09-30T06:50:49;98500.34;;;14.95;100.00
27202;BME280;14717;46.924;15.474;2023-09-30T06:53:19;98503.03;;;15.00;100.00
27202;BME280;14717;46.924;15.474;2023-09-30T06:55:45;98505.72;;;15.05;100.00
27202;BME280;14717;46.924;15.474;2023-09-30T06:58:10;98507.41;;;15.20;100.00
27202;BME280;14717;46.924;15.474;2023-09-30T07:00:37;98514.81;;;15.11;100.00
27202;BME280;14717;46.924;15.474;2023-09-30T07:03:02;98516.63;;;15.20;100.00
27202;BME280;14717;46.924;15.474;2023-09-30T07:05:28;98519.44;;;15.33;100.00
27202;BME280;14717;46.924;15.474;2023-09-30T07:07:54;98516.84;;;15.37;100.00
27202;BME280;14717;46.924;15.474;2023-09-30T07:10:20;98515.19;;;15.49;100.00
27202;BME280;14717;46.924;15.474;2023-09-30T07:12:45;98519.25;;;15.57;100.00
27202;BME280;14717;46.924;15.474;2023-09-30T07:15:11;98524.81;;;15.57;100.00
27202;BME280;14717;46.924;15.474;2023-09-30T07:17:36;98519.34;;;15.52;100.00
27202;BME280;14717;46.924;15.474;2023-09-30T07:20:02;98517.88;;;15.54;100.00
27202;BME280;14717;46.924;15.474;2023-09-30T07:22:28;98526.13;;;15.46;100.00
27202;BME280;14717;46.924;15.474;2023-09-30T07:24:53;98519.94;;;15.49;100.00
27202;BME280;14717;46.924;15.474;2023-09-30T07:27:18;98521.31;;;15.51;100.00
27202;BME280;14717;46.924;15.474;2023-09-30T07:29:44;98524.50;;;15.72;100.00
27202;BME280;14717;46.924;15.474;2023-09-30T07:32:09;98524.28;;;15.81;100.00
27202;BME280;14717;46.924;15.474;2023-09-30T07:34:35;98529.56;;;15.96;100.00
27202;BME280;14717;46.924;15.474;2023-09-30T07:37:00;98533.78;;;16.07;100.00
27202;BME280;14717;46.924;15.474;2023-09-30T07:39:26;98540.06;;;16.13;100.00
27202;BME280;14717;46.924;15.474;2023-09-30T07:41:51;98534.91;;;16.19;100.00
27202;BME280;14717;46.924;15.474;2023-09-30T07:44:17;98532.41;;;16.18;100.00
27202;BME280;14717;46.924;15.474;2023-09-30T07:46:42;98531.22;;;16.24;100.00
27202;BME280;14717;46.924;15.474;2023-09-30T07:49:11;98527.91;;;16.22;100.00
27202;BME280;14717;46.924;15.474;2023-09-30T07:51:37;98543.19;;;16.24;100.00
27202;BME280;14717;46.924;15.474;2023-09-30T07:54:05;98540.09;;;16.26;100.00
27202;BME280;14717;46.924;15.474;2023-09-30T07:56:31;98538.84;;;16.32;100.00
27202;BME280;14717;46.924;15.474;2023-09-30T07:58:57;98546.91;;;16.33;100.00
27202;BME280;14717;46.924;15.474;2023-09-30T08:01:22;98541.31;;;16.33;100.00
27202;BME280;14717;46.924;15.474;2023-09-30T08:03:48;98537.88;;;16.36;100.00
27202;BME280;14717;46.924;15.474;2023-09-30T08:06:13;98549.16;;;16.31;100.00
27202;BME280;14717;46.924;15.474;2023-09-30T08:08:39;98554.00;;;16.39;100.00
27202;BME280;14717;46.924;15.474;2023-09-30T08:11:05;98554.09;;;16.34;100.00
27202;BME280;14717;46.924;15.474;2023-09-30T08:13:31;98556.59;;;16.36;100.00
27202;BME280;14717;46.924;15.474;2023-09-30T08:15:58;98561.25;;;16.40;100.00
27202;BME280;14717;46.924;15.474;2023-09-30T08:18:23;98565.22;;;16.48;100.00
27202;BME280;14717;46.924;15.474;2023-09-30T08:20:49;98564.44;;;16.34;100.00
27202;BME280;14717;46.924;15.474;2023-09-30T08:23:14;98571.16;;;16.33;100.00
27202;BME280;14717;46.924;15.474;2023-09-30T08:25:39;98560.31;;;16.31;100.00
27202;BME280;14717;46.924;15.474;2023-09-30T08:28:05;98560.31;;;16.31;100.00
27202;BME280;14717;46.924;15.474;2023-09-30T08:30:32;98565.97;;;16.40;100.00
27202;BME280;14717;46.924;15.474;2023-09-30T08:32:58;98569.00;;;16.43;100.00
27202;BME280;14717;46.924;15.474;2023-09-30T08:35:24;98565.78;;;16.50;100.00
27202;BME280;14717;46.924;15.474;2023-09-30T08:37:49;98567.91;;;16.53;100.00
27202;BME280;14717;46.924;15.474;2023-09-30T08:40:18;98564.88;;;16.62;100.00
27202;BME280;14717;46.924;15.474;2023-09-30T08:42:45;98565.19;;;16.61;100.00
27202;BME280;14717;46.924;15.474;2023-09-30T08:45:14;98562.63;;;16.64;100.00
27202;BME280;14717;46.924;15.474;2023-09-30T08:47:42;98561.47;;;16.65;100.00
27202;BME280;14717;46.924;15.474;2023-09-30T08:50:09;98569.91;;;16.74;100.00
27202;BME280;14717;46.924;15.474;2023-09-30T08:52:38;98567.00;;;16.79;100.00
27202;BME280;14717;46.924;15.474;2023-09-30T08:55:06;98567.06;;;16.87;100.00
27202;BME280;14717;46.924;15.474;2023-09-30T08:57:33;98558.56;;;16.92;100.00
27202;BME280;14717;46.924;15.474;2023-09-30T09:00:02;98562.47;;;17.04;100.00
27202;BME280;14717;46.924;15.474;2023-09-30T09:02:27;98573.47;;;17.23;100.00
27202;BME280;14717;46.924;15.474;2023-09-30T09:04:53;98567.63;;;17.33;100.00
27202;BME280;14717;46.924;15.474;2023-09-30T09:07:18;98565.25;;;17.48;100.00
27202;BME280;14717;46.924;15.474;2023-09-30T09:10:11;98564.66;;;17.59;100.00
27202;BME280;14717;46.924;15.474;2023-09-30T09:12:39;98558.31;;;17.67;100.00
27202;BME280;14717;46.924;15.474;2023-09-30T09:15:06;98558.03;;;17.77;100.00
27202;BME280;14717;46.924;15.474;2023-09-30T09:17:45;98542.25;;;17.81;100.00
27202;BME280;14717;46.924;15.474;2023-09-30T09:20:13;98544.09;;;17.94;100.00
27202;BME280;14717;46.924;15.474;2023-09-30T09:22:45;98560.84;;;18.16;100.00
27202;BME280;14717;46.924;15.474;2023-09-30T09:25:11;98555.31;;;18.33;100.00
27202;BME280;14717;46.924;15.474;2023-09-30T09:27:37;98553.00;;;18.34;100.00
27202;BME280;14717;46.924;15.474;2023-09-30T09:30:22;98549.41;;;18.59;100.00
27202;BME280;14717;46.924;15.474;2023-09-30T09:32:54;98544.84;;;18.80;100.00
27202;BME280;14717;46.924;15.474;2023-09-30T09:35:21;98552.22;;;18.93;100.00
27202;BME280;14717;46.924;15.474;2023-09-30T09:37:58;98562.63;;;19.01;100.00
27202;BME280;14717;46.924;15.474;2023-09-30T09:40:26;98551.44;;;19.01;100.00
27202;BME280;14717;46.924;15.474;2023-09-30T09:42:51;98548.47;;;19.14;100.00
27202;BME280;14717;46.924;15.474;2023-09-30T09:45:21;98549.75;;;19.42;98.20
27202;BME280;14717;46.924;15.474;2023-09-30T09:47:48;98546.22;;;19.62;96.58
27202;BME280;14717;46.924;15.474;2023-09-30T09:50:14;98541.88;;;19.89;94.04
27202;BME280;14717;46.924;15.474;2023-09-30T09:52:41;98551.13;;;19.90;94.94
27202;BME280;14717;46.924;15.474;2023-09-30T09:55:10;98550.56;;;20.05;94.29
27202;BME280;14717;46.924;15.474;2023-09-30T09:57:36;98551.16;;;20.18;93.69
27202;BME280;14717;46.924;15.474;2023-09-30T10:00:03;98539.91;;;20.47;91.20
27202;BME280;14717;46.924;15.474;2023-09-30T10:02:32;98547.75;;;20.62;89.70
27202;BME280;14717;46.924;15.474;2023-09-30T10:04:58;98549.25;;;20.88;89.08
27202;BME280;14717;46.924;15.474;2023-09-30T10:07:30;98553.13;;;20.75;89.45
27202;BME280;14717;46.924;15.474;2023-09-30T10:10:00;98548.84;;;20.78;91.92
27202;BME280;14717;46.924;15.474;2023-09-30T10:12:27;98542.00;;;20.87;89.35
27202;BME280;14717;46.924;15.474;2023-09-30T10:14:52;98534.16;;;21.33;88.16
27202;BME280;14717;46.924;15.474;2023-09-30T10:17:18;98533.91;;;21.58;86.03
27202;BME280;14717;46.924;15.474;2023-09-30T10:20:03;98539.22;;;21.83;85.96
27202;BME280;14717;46.924;15.474;2023-09-30T10:22:30;98533.69;;;22.19;85.49
27202;BME280;14717;46.924;15.474;2023-09-30T10:24:59;98538.97;;;22.21;82.39
27202;BME280;14717;46.924;15.474;2023-09-30T10:36:00;98516.78;;;22.43;81.53
27202;BME280;14717;46.924;15.474;2023-09-30T10:40:53;98524.47;;;22.81;79.01
27202;BME280;14717;46.924;15.474;2023-09-30T10:43:39;98526.13;;;22.94;78.57
27202;BME280;14717;46.924;15.474;2023-09-30T10:48:52;98517.22;;;22.92;75.51
27202;BME280;14717;46.924;15.474;2023-09-30T10:51:18;98522.34;;;22.90;74.37
27202;BME280;14717;46.924;15.474;2023-09-30T10:53:52;98515.47;;;23.15;74.87
27202;BME280;14717;46.924;15.474;2023-09-30T10:56:19;98515.72;;;23.22;74.81
27202;BME280;14717;46.924;15.474;2023-09-30T10:58:52;98517.50;;;23.42;73.89
27202;BME280;14717;46.924;15.474;2023-09-30T11:01:22;98510.13;;;23.52;72.50
27202;BME280;14717;46.924;15.474;2023-09-30T11:03:48;98520.84;;;23.74;71.49
27202;BME280;14717;46.924;15.474;2023-09-30T11:06:19;98513.22;;;23.90;71.68
27202;BME280;14717;46.924;15.474;2023-09-30T11:08:52;98519.59;;;23.87;71.87
27202;BME280;14717;46.924;15.474;2023-09-30T11:11:18;98510.59;;;23.97;69.73
27202;BME280;14717;46.924;15.474;2023-09-30T11:13:43;98506.47;;;23.79;70.53
27202;BME280;14717;46.924;15.474;2023-09-30T11:16:09;98515.53;;;24.00;70.83
27202;BME280;14717;46.924;15.474;2023-09-30T11:18:35;98518.25;;;24.12;70.22
27202;BME280;14717;46.924;15.474;2023-09-30T11:21:10;98516.91;;;24.21;70.19
27202;BME280;14717;46.924;15.474;2023-09-30T11:23:37;98516.25;;;24.28;69.02
27202;BME280;14717;46.924;15.474;2023-09-30T11:26:03;98507.25;;;24.38;70.99
27202;BME280;14717;46.924;15.474;2023-09-30T11:28:40;98513.16;;;24.48;69.39
27202;BME280;14717;46.924;15.474;2023-09-30T11:31:08;98503.69;;;24.40;68.67
27202;BME280;14717;46.924;15.474;2023-09-30T11:33:50;98499.88;;;24.48;68.30
27202;BME280;14717;46.924;15.474;2023-09-30T11:36:18;98502.97;;;24.78;67.51
27202;BME280;14717;46.924;15.474;2023-09-30T11:38:45;98493.72;;;24.96;65.33
27202;BME280;14717;46.924;15.474;2023-09-30T11:41:12;98486.22;;;25.03;65.45
27202;BME280;14717;46.924;15.474;2023-09-30T11:43:37;98494.19;;;24.98;66.03
27202;BME280;14717;46.924;15.474;2023-09-30T11:46:11;98499.47;;;24.84;66.38
27202;BME280;14717;46.924;15.474;2023-09-30T11:49:03;98485.25;;;25.15;64.91
27202;BME280;14717;46.924;15.474;2023-09-30T11:51:42;98488.69;;;25.24;62.73
27202;BME280;14717;46.924;15.474;2023-09-30T11:54:14;98487.19;;;25.11;62.08
27202;BME280;14717;46.924;15.474;2023-09-30T11:56:40;98473.50;;;25.31;62.86
27202;BME280;14717;46.924;15.474;2023-09-30T11:59:05;98477.13;;;25.51;60.47
27202;BME280;14717;46.924;15.474;2023-09-30T12:01:31;98474.53;;;25.24;59.40
27202;BME280;14717;46.924;15.474;2023-09-30T12:03:58;98473.44;;;25.09;61.32
27202;BME280;14717;46.924;15.474;2023-09-30T12:06:25;98468.97;;;25.08;62.46
27202;BME280;14717;46.924;15.474;2023-09-30T12:08:51;98480.31;;;24.93;62.84
27202;BME280;14717;46.924;15.474;2023-09-30T12:11:20;98467.66;;;24.87;63.17
27202;BME280;14717;46.924;15.474;2023-09-30T12:13:47;98468.88;;;24.71;63.13
27202;BME280;14717;46.924;15.474;2023-09-30T12:16:16;98468.28;;;24.62;63.92
27202;BME280;14717;46.924;15.474;2023-09-30T12:18:42;98474.78;;;24.47;63.28
27202;BME280;14717;46.924;15.474;2023-09-30T12:21:10;98476.56;;;24.55;63.24
27202;BME280;14717;46.924;15.474;2023-09-30T12:23:37;98474.59;;;24.55;64.61
27202;BME280;14717;46.924;15.474;2023-09-30T12:26:03;98477.25;;;24.48;64.03
27202;BME280;14717;46.924;15.474;2023-09-30T12:28:34;98473.38;;;24.56;64.59
27202;BME280;14717;46.924;15.474;2023-09-30T12:31:00;98482.22;;;24.55;64.82
27202;BME280;14717;46.924;15.474;2023-09-30T12:33:30;98478.72;;;24.42;64.20
27202;BME280;14717;46.924;15.474;2023-09-30T12:35:56;98474.03;;;24.50;64.56
27202;BME280;14717;46.924;15.474;2023-09-30T12:38:24;98474.94;;;24.54;64.12
27202;BME280;14717;46.924;15.474;2023-09-30T12:40:51;98474.22;;;24.41;63.28
27202;BME280;14717;46.924;15.474;2023-09-30T12:43:17;98475.88;;;24.42;64.86
27202;BME280;14717;46.924;15.474;2023-09-30T12:45:42;98484.59;;;24.53;63.61
27202;BME280;14717;46.924;15.474;2023-09-30T12:48:08;98471.03;;;24.58;63.52
27202;BME280;14717;46.924;15.474;2023-09-30T12:50:33;98455.84;;;24.66;64.83
27202;BME280;14717;46.924;15.474;2023-09-30T12:52:59;98464.03;;;24.71;63.78
27202;BME280;14717;46.924;15.474;2023-09-30T12:55:24;98467.34;;;24.73;64.07
27202;BME280;14717;46.924;15.474;2023-09-30T12:57:52;98462.72;;;24.84;64.79
27202;BME280;14717;46.924;15.474;2023-09-30T13:00:18;98466.22;;;24.78;63.49